sensor_id;sensor_type;location;lat;lon;timestamp;pressure;altitude;pressure_sealevel;temperature;humidity
75868;BME280;64515;51.446;7.578;2022-11-04T00:01:33;98827.84;;;20.98;53.64
75868;BME280;64515;51.446;7.578;2022-11-04T00:04:01;98831.56;;;20.97;53.68
75868;BME280;64515;51.446;7.578;2022-11-04T00:06:26;98833.56;;;20.95;53.81
75868;BME280;64515;51.446;7.578;2022-11-04T00:08:52;98842.72;;;20.94;53.85
75868;BME280;64515;51.446;7.578;2022-11-04T00:11:18;98846.75;;;20.90;53.94
75868;BME280;64515;51.446;7.578;2022-11-04T00:14:02;98855.75;;;20.90;53.98
75868;BME280;64515;51.446;7.578;2022-11-04T00:16:28;98858.44;;;20.90;53.87
75868;BME280;64515;51.446;7.578;2022-11-04T00:19:12;98855.88;;;20.89;53.89
75868;BME280;64515;51.446;7.578;2022-11-04T00:21:37;98872.50;;;20.86;54.03
75868;BME280;64515;51.446;7.578;2022-11-04T00:24:21;98874.75;;;20.80;54.22
75868;BME280;64515;51.446;7.578;2022-11-04T00:27:06;98887.66;;;20.78;54.21
75868;BME280;64515;51.446;7.578;2022-11-04T00:29:50;98897.78;;;20.76;54.02
75868;BME280;64515;51.446;7.578;2022-11-04T00:32:15;98907.94;;;20.74;54.30
75868;BME280;64515;51.446;7.578;2022-11-04T00:34:59;98908.22;;;20.71;54.36
75868;BME280;64515;51.446;7.578;2022-11-04T00:37:24;98919.78;;;20.73;54.47
75868;BME280;64515;51.446;7.578;2022-11-04T00:39:49;98919.06;;;20.71;54.43
75868;BME280;64515;51.446;7.578;2022-11-04T00:42:14;98904.75;;;20.69;54.47
75868;BME280;64515;51.446;7.578;2022-11-04T00:44:39;98897.63;;;20.68;54.44
75868;BME280;64515;51.446;7.578;2022-11-04T00:47:04;98924.78;;;20.68;54.52
75868;BME280;64515;51.446;7.578;2022-11-04T00:49:29;98910.19;;;20.69;54.51
75868;BME280;64515;51.446;7.578;2022-11-04T00:51:55;98895.91;;;20.67;54.51
75868;BME280;64515;51.446;7.578;2022-11-04T00:54:20;98913.34;;;20.64;54.62
75868;BME280;64515;51.446;7.578;2022-11-04T00:56:45;98915.19;;;20.64;54.55
75868;BME280;64515;51.446;7.578;2022-11-04T00:59:12;98923.34;;;20.64;54.61
75868;BME280;64515;51.446;7.578;2022-11-04T01:01:37;98933.47;;;20.62;54.61
75868;BME280;64515;51.446;7.578;2022-11-04T01:04:02;98933.63;;;20.60;54.74
75868;BME280;64515;51.446;7.578;2022-11-04T01:06:28;98933.75;;;20.59;54.80
75868;BME280;64515;51.446;7.578;2022-11-04T01:08:57;98941.91;;;20.59;54.70
75868;BME280;64515;51.446;7.578;2022-11-04T01:11:22;98946.63;;;20.57;54.77
75868;BME280;64515;51.446;7.578;2022-11-04T01:13:51;98954.78;;;20.57;54.75
75868;BME280;64515;51.446;7.578;2022-11-04T01:16:16;98963.91;;;20.56;54.75
75868;BME280;64515;51.446;7.578;2022-11-04T01:18:41;98966.75;;;20.54;54.94
75868;BME280;64515;51.446;7.578;2022-11-04T01:21:07;98964.19;;;20.52;54.90
75868;BME280;64515;51.446;7.578;2022-11-04T01:23:33;98963.34;;;20.52;54.97
75868;BME280;64515;51.446;7.578;2022-11-04T01:25:58;98948.88;;;20.51;54.87
75868;BME280;64515;51.446;7.578;2022-11-04T01:28:23;98961.63;;;20.51;54.85
75868;BME280;64515;51.446;7.578;2022-11-04T01:30:48;98977.03;;;20.50;54.86
75868;BME280;64515;51.446;7.578;2022-11-04T01:33:14;98975.34;;;20.49;54.97
75868;BME280;64515;51.446;7.578;2022-11-04T01:35:39;98975.34;;;20.49;54.94
75868;BME280;64515;51.446;7.578;2022-11-04T01:38:04;98970.91;;;20.48;54.94
75868;BME280;64515;51.446;7.578;2022-11-04T01:40:29;98984.47;;;20.48;55.06
75868;BME280;64515;51.446;7.578;2022-11-04T01:42:59;98982.75;;;20.47;55.00
75868;BME280;64515;51.446;7.578;2022-11-04T01:45:24;98988.19;;;20.47;55.01
75868;BME280;64515;51.446;7.578;2022-11-04T01:48:31;98982.75;;;20.47;55.06
75868;BME280;64515;51.446;7.578;2022-11-04T01:50:37;98981.03;;;20.46;55.11
75868;BME280;64515;51.446;7.578;2022-11-04T01:53:07;98985.63;;;20.46;55.03
75868;BME280;64515;51.446;7.578;2022-11-04T01:55:35;98988.44;;;20.44;55.04
75868;BME280;64515;51.446;7.578;2022-11-04T01:58:12;98993.88;;;20.44;55.14
75868;BME280;64515;51.446;7.578;2022-11-04T02:00:40;98990.31;;;20.44;55.05
75868;BME280;64515;51.446;7.578;2022-11-04T02:05:34;98999.47;;;20.43;55.11
75868;BME280;64515;51.446;7.578;2022-11-04T02:08:00;99001.31;;;20.42;55.00
75868;BME280;64515;51.446;7.578;2022-11-04T02:10:27;99006.75;;;20.42;55.03
75868;BME280;64515;51.446;7.578;2022-11-04T02:12:53;98999.59;;;20.41;55.18
75868;BME280;64515;51.446;7.578;2022-11-04T02:15:25;98992.44;;;20.40;55.29
75868;BME280;64515;51.446;7.578;2022-11-04T02:17:58;98997.88;;;20.40;55.17
75868;BME280;64515;51.446;7.578;2022-11-04T02:23:25;99005.28;;;20.38;55.24
75868;BME280;64515;51.446;7.578;2022-11-04T02:28:30;98998.16;;;20.37;55.11
75868;BME280;64515;51.446;7.578;2022-11-04T02:31:02;98991.88;;;20.36;55.18
75868;BME280;64515;51.446;7.578;2022-11-04T02:33:48;98994.59;;;20.36;55.26
75868;BME280;64515;51.446;7.578;2022-11-04T02:36:29;98992.72;;;20.37;55.19
75868;BME280;64515;51.446;7.578;2022-11-04T02:39:04;98985.56;;;20.36;55.12
75868;BME280;64515;51.446;7.578;2022-11-04T02:41:37;98974.72;;;20.36;55.26
75868;BME280;64515;51.446;7.578;2022-11-04T02:49:13;98971.31;;;20.34;55.23
75868;BME280;64515;51.446;7.578;2022-11-04T02:54:13;98976.59;;;20.35;55.12
75868;BME280;64515;51.446;7.578;2022-11-04T02:56:45;98983.88;;;20.35;55.16
75868;BME280;64515;51.446;7.578;2022-11-04T02:59:14;98975.72;;;20.35;55.25
75868;BME280;64515;51.446;7.578;2022-11-04T03:01:42;98989.31;;;20.35;55.16
75868;BME280;64515;51.446;7.578;2022-11-04T03:04:11;98986.59;;;20.35;55.22
75868;BME280;64515;51.446;7.578;2022-11-04T03:06:38;98991.28;;;20.33;55.27
75868;BME280;64515;51.446;7.578;2022-11-04T03:09:04;98994.72;;;20.35;55.23
75868;BME280;64515;51.446;7.578;2022-11-04T03:11:31;99007.28;;;20.36;55.10
75868;BME280;64515;51.446;7.578;2022-11-04T03:16:26;99004.31;;;20.39;55.11
75868;BME280;64515;51.446;7.578;2022-11-04T03:21:28;99008.75;;;20.40;55.09
75868;BME280;64515;51.446;7.578;2022-11-04T03:23:55;99012.31;;;20.41;55.07
75868;BME280;64515;51.446;7.578;2022-11-04T03:26:27;99008.75;;;20.40;55.03
75868;BME280;64515;51.446;7.578;2022-11-04T03:31:44;99009.59;;;20.41;55.09
75868;BME280;64515;51.446;7.578;2022-11-04T03:34:11;99006.75;;;20.42;55.00
75868;BME280;64515;51.446;7.578;2022-11-04T03:36:36;99008.59;;;20.42;54.98
75868;BME280;64515;51.446;7.578;2022-11-04T03:39:02;99012.19;;;20.42;54.90
75868;BME280;64515;51.446;7.578;2022-11-04T03:41:30;99014.03;;;20.42;54.98
75868;BME280;64515;51.446;7.578;2022-11-04T03:43:56;99016.72;;;20.42;55.02
75868;BME280;64515;51.446;7.578;2022-11-04T03:46:21;99016.16;;;20.38;55.08
75868;BME280;64515;51.446;7.578;2022-11-04T03:48:47;99012.44;;;20.39;55.05
75868;BME280;64515;51.446;7.578;2022-11-04T03:51:14;99017.03;;;20.39;54.98
75868;BME280;64515;51.446;7.578;2022-11-04T03:53:39;99008.75;;;20.40;55.01
75868;BME280;64515;51.446;7.578;2022-11-04T03:58:37;99012.44;;;20.39;54.97
75868;BME280;64515;51.446;7.578;2022-11-04T04:01:10;99017.88;;;20.39;55.06
75868;BME280;64515;51.446;7.578;2022-11-04T04:03:45;99016.16;;;20.38;55.05
75868;BME280;64515;51.446;7.578;2022-11-04T04:06:14;99001.84;;;20.36;55.08
75868;BME280;64515;51.446;7.578;2022-11-04T04:08:46;99019.84;;;20.37;55.05
75868;BME280;64515;51.446;7.578;2022-11-04T04:13:56;99028.16;;;20.35;55.14
75868;BME280;64515;51.446;7.578;2022-11-04T04:18:54;99032.72;;;20.35;55.01
75868;BME280;64515;51.446;7.578;2022-11-04T04:21:22;99029.28;;;20.33;54.98
75868;BME280;64515;51.446;7.578;2022-11-04T04:23:50;99032.72;;;20.35;54.94
75868;BME280;64515;51.446;7.578;2022-11-04T04:26:36;99032.72;;;20.35;55.03
75868;BME280;64515;51.446;7.578;2022-11-04T04:29:23;99027.56;;;20.32;55.05
75868;BME280;64515;51.446;7.578;2022-11-04T04:31:49;99026.56;;;20.33;55.18
75868;BME280;64515;51.446;7.578;2022-11-04T04:34:22;99033.56;;;20.35;55.07
75868;BME280;64515;51.446;7.578;2022-11-04T04:36:50;99036.03;;;20.39;55.08
75868;BME280;64515;51.446;7.578;2022-11-04T04:39:17;99034.41;;;20.36;55.09
75868;BME280;64515;51.446;7.578;2022-11-04T04:42:03;99045.03;;;20.39;55.12
75868;BME280;64515;51.446;7.578;2022-11-04T04:44:47;99042.47;;;20.47;54.86
75868;BME280;64515;51.446;7.578;2022-11-04T04:47:26;99043.66;;;20.55;54.59
75868;BME280;64515;51.446;7.578;2022-11-04T04:49:54;99055.94;;;20.59;54.61
75868;BME280;64515;51.446;7.578;2022-11-04T04:52:21;99055.66;;;20.62;54.49
75868;BME280;64515;51.446;7.578;2022-11-04T04:54:47;99057.09;;;20.66;54.46
75868;BME280;64515;51.446;7.578;2022-11-04T04:57:12;99057.69;;;20.70;54.31
75868;BME280;64515;51.446;7.578;2022-11-04T04:59:37;99071.75;;;20.75;54.28
75868;BME280;64515;51.446;7.578;2022-11-04T05:02:02;99067.59;;;20.80;54.11
75868;BME280;64515;51.446;7.578;2022-11-04T05:04:28;99078.22;;;20.83;53.98
75868;BME280;64515;51.446;7.578;2022-11-04T05:06:53;99086.34;;;20.83;54.01
75868;BME280;64515;51.446;7.578;2022-11-04T05:09:18;99080.63;;;20.87;53.90
75868;BME280;64515;51.446;7.578;2022-11-04T05:11:43;99081.34;;;20.89;53.86
75868;BME280;64515;51.446;7.578;2022-11-04T05:14:09;99087.50;;;20.91;53.80
75868;BME280;64515;51.446;7.578;2022-11-04T05:16:34;99098.38;;;20.91;53.70
75868;BME280;64515;51.446;7.578;2022-11-04T05:18:59;99101.81;;;20.93;53.73
75868;BME280;64515;51.446;7.578;2022-11-04T05:21:24;99106.25;;;20.94;53.90
75868;BME280;64515;51.446;7.578;2022-11-04T05:23:49;99110.69;;;20.95;53.65
75868;BME280;64515;51.446;7.578;2022-11-04T05:26:14;99110.69;;;20.95;53.67
75868;BME280;64515;51.446;7.578;2022-11-04T05:28:40;99116.09;;;20.95;53.84
75868;BME280;64515;51.446;7.578;2022-11-04T05:31:05;99117.84;;;20.96;53.76
75868;BME280;64515;51.446;7.578;2022-11-04T05:33:30;99112.53;;;20.94;53.82
75868;BME280;64515;51.446;7.578;2022-11-04T05:36:03;99121.53;;;20.95;53.85
75868;BME280;64515;51.446;7.578;2022-11-04T05:38:29;99125.25;;;20.94;53.78
75868;BME280;64515;51.446;7.578;2022-11-04T05:40:56;99121.53;;;20.95;53.89
75868;BME280;64515;51.446;7.578;2022-11-04T05:43:21;99124.16;;;20.96;53.77
75868;BME280;64515;51.446;7.578;2022-11-04T05:45:46;99125.00;;;20.97;53.71
75868;BME280;64515;51.446;7.578;2022-11-04T05:48:11;99119.56;;;20.97;53.65
75868;BME280;64515;51.446;7.578;2022-11-04T05:50:36;99119.56;;;20.97;53.69
75868;BME280;64515;51.446;7.578;2022-11-04T05:53:02;99118.56;;;20.98;53.70
75868;BME280;64515;51.446;7.578;2022-11-04T05:55:27;99116.69;;;20.98;53.73
75868;BME280;64515;51.446;7.578;2022-11-04T05:57:52;99120.28;;;20.99;53.80
75868;BME280;64515;51.446;7.578;2022-11-04T06:00:17;99119.28;;;21.00;53.55
75868;BME280;64515;51.446;7.578;2022-11-04T06:02:43;99119.28;;;21.00;53.73
75868;BME280;64515;51.446;7.578;2022-11-04T06:05:08;99123.00;;;20.99;53.69
75868;BME280;64515;51.446;7.578;2022-11-04T06:07:33;99123.00;;;20.99;53.70
75868;BME280;64515;51.446;7.578;2022-11-04T06:09:58;99128.44;;;20.99;53.75
75868;BME280;64515;51.446;7.578;2022-11-04T06:12:24;99134.72;;;20.99;53.75
75868;BME280;64515;51.446;7.578;2022-11-04T06:14:49;99132.88;;;21.00;53.69
75868;BME280;64515;51.446;7.578;2022-11-04T06:17:19;99133.88;;;20.99;53.71
75868;BME280;64515;51.446;7.578;2022-11-04T06:19:44;99139.31;;;20.99;53.69
75868;BME280;64515;51.446;7.578;2022-11-04T06:22:10;99136.59;;;20.99;53.83
75868;BME280;64515;51.446;7.578;2022-11-04T06:24:36;99145.72;;;20.98;53.77
75868;BME280;64515;51.446;7.578;2022-11-04T06:27:01;99153.88;;;20.98;53.74
75868;BME280;64515;51.446;7.578;2022-11-04T06:29:26;99156.59;;;20.98;53.88
75868;BME280;64515;51.446;7.578;2022-11-04T06:31:51;99162.03;;;20.98;53.72
75868;BME280;64515;51.446;7.578;2022-11-04T06:34:17;99159.31;;;20.98;53.77
75868;BME280;64515;51.446;7.578;2022-11-04T06:36:42;99164.75;;;20.98;53.70
75868;BME280;64515;51.446;7.578;2022-11-04T06:39:07;99170.19;;;20.98;53.82
75868;BME280;64515;51.446;7.578;2022-11-04T06:41:32;99182.78;;;20.99;53.75
75868;BME280;64515;51.446;7.578;2022-11-04T06:43:57;99185.50;;;20.99;53.75
75868;BME280;64515;51.446;7.578;2022-11-04T06:46:23;99182.78;;;20.99;53.73
75868;BME280;64515;51.446;7.578;2022-11-04T06:48:49;99188.22;;;20.99;53.69
75868;BME280;64515;51.446;7.578;2022-11-04T06:51:14;99184.63;;;20.98;53.77
75868;BME280;64515;51.446;7.578;2022-11-04T06:53:39;99185.50;;;20.99;53.82
75868;BME280;64515;51.446;7.578;2022-11-04T06:56:04;99183.78;;;20.98;53.74
75868;BME280;64515;51.446;7.578;2022-11-04T06:58:30;99195.38;;;21.00;53.79
75868;BME280;64515;51.446;7.578;2022-11-04T07:00:56;99199.06;;;20.99;53.77
75868;BME280;64515;51.446;7.578;2022-11-04T07:03:21;99201.78;;;20.99;53.63
75868;BME280;64515;51.446;7.578;2022-11-04T07:05:46;99197.78;;;21.03;53.64
75868;BME280;64515;51.446;7.578;2022-11-04T07:08:11;99200.38;;;21.05;53.61
75868;BME280;64515;51.446;7.578;2022-11-04T07:10:36;99207.94;;;21.01;53.67
75868;BME280;64515;51.446;7.578;2022-11-04T07:13:02;99215.38;;;20.99;53.67
75868;BME280;64515;51.446;7.578;2022-11-04T07:15:27;99220.81;;;20.99;53.91
75868;BME280;64515;51.446;7.578;2022-11-04T07:17:52;99222.78;;;20.97;53.87
75868;BME280;64515;51.446;7.578;2022-11-04T07:20:17;99229.97;;;20.98;53.81
75868;BME280;64515;51.446;7.578;2022-11-04T07:22:42;99233.41;;;21.00;53.70
75868;BME280;64515;51.446;7.578;2022-11-04T07:25:08;99253.13;;;21.02;53.72
75868;BME280;64515;51.446;7.578;2022-11-04T07:27:33;99249.72;;;21.00;53.66
75868;BME280;64515;51.446;7.578;2022-11-04T07:29:58;99256.84;;;21.01;53.63
75868;BME280;64515;51.446;7.578;2022-11-04T07:32:23;99259.44;;;21.03;53.56
75868;BME280;64515;51.446;7.578;2022-11-04T07:34:49;99255.72;;;21.04;53.53
75868;BME280;64515;51.446;7.578;2022-11-04T07:37:14;99253.72;;;21.06;53.63
75868;BME280;64515;51.446;7.578;2022-11-04T07:39:39;99247.44;;;21.05;53.52
75868;BME280;64515;51.446;7.578;2022-11-04T07:42:08;99244.56;;;21.07;53.54
75868;BME280;64515;51.446;7.578;2022-11-04T07:44:33;99238.28;;;21.06;53.59
75868;BME280;64515;51.446;7.578;2022-11-04T07:46:58;99247.44;;;21.05;53.54
75868;BME280;64515;51.446;7.578;2022-11-04T07:49:23;99247.44;;;21.05;53.63
75868;BME280;64515;51.446;7.578;2022-11-04T07:51:49;99260.03;;;21.06;53.63
75868;BME280;64515;51.446;7.578;2022-11-04T07:54:14;99261.75;;;21.07;53.54
75868;BME280;64515;51.446;7.578;2022-11-04T07:56:40;99259.88;;;21.08;53.62
75868;BME280;64515;51.446;7.578;2022-11-04T07:59:05;99263.34;;;21.10;53.56
75868;BME280;64515;51.446;7.578;2022-11-04T08:01:31;99265.91;;;21.11;53.44
75868;BME280;64515;51.446;7.578;2022-11-04T08:03:56;99273.47;;;21.08;53.69
75868;BME280;64515;51.446;7.578;2022-11-04T08:06:22;99276.34;;;21.06;53.54
75868;BME280;64515;51.446;7.578;2022-11-04T08:08:48;99274.75;;;21.04;53.60
75868;BME280;64515;51.446;7.578;2022-11-04T08:11:17;99267.44;;;21.04;53.76
75868;BME280;64515;51.446;7.578;2022-11-04T08:13:43;99272.88;;;21.04;53.76
75868;BME280;64515;51.446;7.578;2022-11-04T08:16:10;99272.63;;;21.07;53.65
75868;BME280;64515;51.446;7.578;2022-11-04T08:18:37;99265.47;;;21.06;52.97
75868;BME280;64515;51.446;7.578;2022-11-04T08:21:03;99270.91;;;21.06;53.42
75868;BME280;64515;51.446;7.578;2022-11-04T08:23:29;99270.91;;;21.06;53.54
75868;BME280;64515;51.446;7.578;2022-11-04T08:25:54;99271.75;;;21.07;53.68
75868;BME280;64515;51.446;7.578;2022-11-04T08:28:20;99266.63;;;21.13;53.47
75868;BME280;64515;51.446;7.578;2022-11-04T08:30:54;99276.38;;;21.16;53.35
75868;BME280;64515;51.446;7.578;2022-11-04T08:33:20;99279.25;;;21.14;53.33
75868;BME280;64515;51.446;7.578;2022-11-04T08:35:46;99279.94;;;21.17;53.25
75868;BME280;64515;51.446;7.578;2022-11-04T08:38:11;99277.38;;;21.15;53.39
75868;BME280;64515;51.446;7.578;2022-11-04T08:40:36;99279.94;;;21.17;53.40
75868;BME280;64515;51.446;7.578;2022-11-04T08:43:01;99279.78;;;21.18;53.33
75868;BME280;64515;51.446;7.578;2022-11-04T08:45:27;99281.41;;;21.21;53.07
75868;BME280;64515;51.446;7.578;2022-11-04T08:47:52;99279.53;;;21.21;53.11
75868;BME280;64515;51.446;7.578;2022-11-04T08:50:17;99274.94;;;21.22;53.23
75868;BME280;64515;51.446;7.578;2022-11-04T08:52:43;99274.09;;;21.21;53.20
75868;BME280;64515;51.446;7.578;2022-11-04T08:55:08;99267.81;;;21.21;53.27
75868;BME280;64515;51.446;7.578;2022-11-04T08:57:34;99274.09;;;21.21;53.30
75868;BME280;64515;51.446;7.578;2022-11-04T08:59:59;99275.69;;;21.24;53.29
75868;BME280;64515;51.446;7.578;2022-11-04T09:02:24;99284.72;;;21.24;53.22
75868;BME280;64515;51.446;7.578;2022-11-04T09:04:49;99292.97;;;21.23;53.28
75868;BME280;64515;51.446;7.578;2022-11-04T09:07:15;99287.53;;;21.23;53.34
75868;BME280;64515;51.446;7.578;2022-11-04T09:09:40;99280.66;;;21.19;53.37
75868;BME280;64515;51.446;7.578;2022-11-04T09:12:07;99273.50;;;21.18;53.46
75868;BME280;64515;51.446;7.578;2022-11-04T09:14:33;99268.06;;;21.18;53.70
75868;BME280;64515;51.446;7.578;2022-11-04T09:16:58;99260.91;;;21.17;53.51
75868;BME280;64515;51.446;7.578;2022-11-04T09:19:23;99269.06;;;21.17;53.44
75868;BME280;64515;51.446;7.578;2022-11-04T09:21:48;99279.78;;;21.18;53.36
75868;BME280;64515;51.446;7.578;2022-11-04T09:24:13;99282.41;;;21.20;53.54
75868;BME280;64515;51.446;7.578;2022-11-04T09:26:38;99286.53;;;21.24;53.40
75868;BME280;64515;51.446;7.578;2022-11-04T09:29:04;99283.56;;;21.27;53.23
75868;BME280;64515;51.446;7.578;2022-11-04T09:31:32;99280.13;;;21.25;53.34
75868;BME280;64515;51.446;7.578;2022-11-04T09:33:57;99268.97;;;21.28;53.38
75868;BME280;64515;51.446;7.578;2022-11-04T09:36:22;99270.69;;;21.29;53.21
75868;BME280;64515;51.446;7.578;2022-11-04T09:38:47;99280.13;;;21.25;53.29
75868;BME280;64515;51.446;7.578;2022-11-04T09:46:25;99274.13;;;21.31;53.23
75868;BME280;64515;51.446;7.578;2022-11-04T09:48:53;99280.44;;;21.31;53.16
75868;BME280;64515;51.446;7.578;2022-11-04T09:51:19;99283.75;;;21.35;53.14
75868;BME280;64515;51.446;7.578;2022-11-04T09:53:50;99293.88;;;21.33;53.21
75868;BME280;64515;51.446;7.578;2022-11-04T09:56:20;99281.28;;;21.32;53.29
75868;BME280;64515;51.446;7.578;2022-11-04T09:58:46;99275.84;;;21.32;53.35
75868;BME280;64515;51.446;7.578;2022-11-04T10:01:20;99283.00;;;21.33;53.24
75868;BME280;64515;51.446;7.578;2022-11-04T10:06:34;99289.44;;;21.32;53.31
75868;BME280;64515;51.446;7.578;2022-11-04T10:11:38;99282.88;;;21.35;53.29
75868;BME280;64515;51.446;7.578;2022-11-04T10:19:49;99296.59;;;21.33;53.29
75868;BME280;64515;51.446;7.578;2022-11-04T10:27:24;99303.03;;;21.32;53.32
75868;BME280;64515;51.446;7.578;2022-11-04T10:29:55;99307.75;;;21.30;53.38
75868;BME280;64515;51.446;7.578;2022-11-04T10:32:36;99303.28;;;21.29;53.46
75868;BME280;64515;51.446;7.578;2022-11-04T10:37:50;99305.91;;;21.30;53.36
75868;BME280;64515;51.446;7.578;2022-11-04T10:40:16;99307.88;;;21.28;53.43
75868;BME280;64515;51.446;7.578;2022-11-04T10:42:44;99313.47;;;21.27;53.46
75868;BME280;64515;51.446;7.578;2022-11-04T10:45:10;99305.31;;;21.27;53.46
75868;BME280;64515;51.446;7.578;2022-11-04T10:50:20;99319.59;;;21.29;53.33
75868;BME280;64515;51.446;7.578;2022-11-04T10:52:47;99319.34;;;21.32;53.31
75868;BME280;64515;51.446;7.578;2022-11-04T10:55:14;99331.94;;;21.33;53.37
75868;BME280;64515;51.446;7.578;2022-11-04T10:57:44;99332.69;;;21.35;53.23
75868;BME280;64515;51.446;7.578;2022-11-04T11:00:09;99334.38;;;21.36;53.23
75868;BME280;64515;51.446;7.578;2022-11-04T11:02:54;99328.81;;;21.38;53.37
75868;BME280;64515;51.446;7.578;2022-11-04T11:05:21;99325.13;;;21.39;53.26
75868;BME280;64515;51.446;7.578;2022-11-04T11:07:48;99324.22;;;21.38;53.28
75868;BME280;64515;51.446;7.578;2022-11-04T11:10:18;99330.66;;;21.37;53.31
75868;BME280;64515;51.446;7.578;2022-11-04T11:12:49;99341.84;;;21.34;53.51
75868;BME280;64515;51.446;7.578;2022-11-04T11:15:25;99349.00;;;21.35;53.32
75868;BME280;64515;51.446;7.578;2022-11-04T11:20:32;99359.72;;;21.37;53.34
75868;BME280;64515;51.446;7.578;2022-11-04T11:22:59;99359.72;;;21.37;53.35
75868;BME280;64515;51.446;7.578;2022-11-04T11:25:26;99354.28;;;21.37;53.35
75868;BME280;64515;51.446;7.578;2022-11-04T11:27:55;99356.00;;;21.38;53.37
75868;BME280;64515;51.446;7.578;2022-11-04T11:30:22;99357.41;;;21.32;53.51
75868;BME280;64515;51.446;7.578;2022-11-04T11:32:50;99348.53;;;21.30;53.62
75868;BME280;64515;51.446;7.578;2022-11-04T11:35:18;99352.22;;;21.29;53.76
75868;BME280;64515;51.446;7.578;2022-11-04T11:37:45;99360.69;;;21.26;53.54
75868;BME280;64515;51.446;7.578;2022-11-04T11:40:30;99361.41;;;21.28;53.53
75868;BME280;64515;51.446;7.578;2022-11-04T11:42:58;99360.38;;;21.29;53.52
75868;BME280;64515;51.446;7.578;2022-11-04T11:45:24;99358.69;;;21.28;53.57
75868;BME280;64515;51.446;7.578;2022-11-04T11:47:50;99357.41;;;21.32;53.32
75868;BME280;64515;51.446;7.578;2022-11-04T11:50:23;99362.84;;;21.32;53.41
75868;BME280;64515;51.446;7.578;2022-11-04T11:52:50;99360.13;;;21.32;53.43
75868;BME280;64515;51.446;7.578;2022-11-04T11:55:30;99362.84;;;21.32;53.44
75868;BME280;64515;51.446;7.578;2022-11-04T11:58:18;99357.41;;;21.32;53.51
75868;BME280;64515;51.446;7.578;2022-11-04T12:00:50;99355.69;;;21.31;53.48
75868;BME280;64515;51.446;7.578;2022-11-04T12:03:34;99359.13;;;21.33;53.41
75868;BME280;64515;51.446;7.578;2022-11-04T12:06:11;99351.56;;;21.37;53.25
75868;BME280;64515;51.446;7.578;2022-11-04T12:13:49;99356.13;;;21.36;53.41
75868;BME280;64515;51.446;7.578;2022-11-04T12:16:28;99348.13;;;21.35;53.43
75868;BME280;64515;51.446;7.578;2022-11-04T12:21:46;99362.44;;;21.37;53.44
75868;BME280;64515;51.446;7.578;2022-11-04T12:27:13;99364.28;;;21.36;53.35
75868;BME280;64515;51.446;7.578;2022-11-04T12:32:27;99371.16;;;21.30;53.55
75868;BME280;64515;51.446;7.578;2022-11-04T12:40:10;99376.00;;;21.27;53.71
75868;BME280;64515;51.446;7.578;2022-11-04T12:42:46;99370.25;;;21.30;53.48
75868;BME280;64515;51.446;7.578;2022-11-04T12:48:09;99382.31;;;21.37;53.22
75868;BME280;64515;51.446;7.578;2022-11-04T12:50:53;99376.88;;;21.37;53.25
75868;BME280;64515;51.446;7.578;2022-11-04T12:58:16;99372.94;;;21.20;53.43
75868;BME280;64515;51.446;7.578;2022-11-04T13:00:46;99377.13;;;21.24;53.42
75868;BME280;64515;51.446;7.578;2022-11-04T13:03:17;99382.88;;;21.31;53.23
75868;BME280;64515;51.446;7.578;2022-11-04T13:05:50;99381.13;;;21.30;53.21
75868;BME280;64515;51.446;7.578;2022-11-04T13:08:19;99382.88;;;21.31;53.29
75868;BME280;64515;51.446;7.578;2022-11-04T13:13:12;99394.19;;;21.36;53.08
75868;BME280;64515;51.446;7.578;2022-11-04T13:15:45;99392.22;;;21.38;52.99
75868;BME280;64515;51.446;7.578;2022-11-04T13:18:14;99387.75;;;21.37;53.03
75868;BME280;64515;51.446;7.578;2022-11-04T13:23:09;99386.63;;;21.40;52.96
75868;BME280;64515;51.446;7.578;2022-11-04T13:25:40;99384.94;;;21.39;52.95
75868;BME280;64515;51.446;7.578;2022-11-04T13:28:12;99399.50;;;21.38;53.07
75868;BME280;64515;51.446;7.578;2022-11-04T13:30:39;99405.06;;;21.36;53.14
75868;BME280;64515;51.446;7.578;2022-11-04T13:36:00;99407.66;;;21.38;53.15
75868;BME280;64515;51.446;7.578;2022-11-04T13:38:36;99424.84;;;21.38;53.07
75868;BME280;64515;51.446;7.578;2022-11-04T13:43:36;99414.94;;;21.37;53.08
75868;BME280;64515;51.446;7.578;2022-11-04T13:46:49;99418.66;;;21.36;53.15
75868;BME280;64515;51.446;7.578;2022-11-04T13:51:24;99422.66;;;21.32;53.26
75868;BME280;64515;51.446;7.578;2022-11-04T13:53:57;99434.25;;;21.34;53.30
75868;BME280;64515;51.446;7.578;2022-11-04T13:56:26;99433.53;;;21.32;53.28
75868;BME280;64515;51.446;7.578;2022-11-04T13:58:53;99433.53;;;21.32;53.36
75868;BME280;64515;51.446;7.578;2022-11-04T14:09:23;99450.63;;;21.23;53.58
75868;BME280;64515;51.446;7.578;2022-11-04T14:14:32;99468.66;;;21.24;53.61
75868;BME280;64515;51.446;7.578;2022-11-04T14:16:57;99460.50;;;21.24;53.61
75868;BME280;64515;51.446;7.578;2022-11-04T14:22:12;99461.78;;;21.20;53.77
75868;BME280;64515;51.446;7.578;2022-11-04T14:24:38;99460.91;;;21.19;53.76
75868;BME280;64515;51.446;7.578;2022-11-04T14:27:03;99466.22;;;21.21;53.67
75868;BME280;64515;51.446;7.578;2022-11-04T14:29:30;99475.22;;;21.21;53.79
75868;BME280;64515;51.446;7.578;2022-11-04T14:31:57;99474.38;;;21.21;53.68
75868;BME280;64515;51.446;7.578;2022-11-04T14:34:24;99484.53;;;21.19;53.76
75868;BME280;64515;51.446;7.578;2022-11-04T14:36:56;99485.25;;;21.21;53.75
75868;BME280;64515;51.446;7.578;2022-11-04T14:39:23;99486.25;;;21.20;53.66
75868;BME280;64515;51.446;7.578;2022-11-04T14:41:58;99491.69;;;21.20;53.80
75868;BME280;64515;51.446;7.578;2022-11-04T14:46:50;99494.41;;;21.20;53.71
75868;BME280;64515;51.446;7.578;2022-11-04T14:51:52;99505.97;;;21.22;53.69
75868;BME280;64515;51.446;7.578;2022-11-04T14:54:18;99502.28;;;21.23;53.67
75868;BME280;64515;51.446;7.578;2022-11-04T14:56:44;99515.88;;;21.23;53.66
75868;BME280;64515;51.446;7.578;2022-11-04T14:59:18;99516.75;;;21.23;53.75
75868;BME280;64515;51.446;7.578;2022-11-04T15:01:44;99516.59;;;21.25;53.67
75868;BME280;64515;51.446;7.578;2022-11-04T15:04:28;99523.03;;;21.24;53.54